createdAt,value
2022-10-06T00:00:00.961Z,100.00
2022-10-06T00:02:28.154Z,100.00
2022-10-06T00:04:54.834Z,100.00
2022-10-06T00:07:21.349Z,100.00
2022-10-06T00:09:47.872Z,100.00
2022-10-06T00:12:14.430Z,100.00
2022-10-06T00:14:41.024Z,100.00
2022-10-06T00:17:07.524Z,100.00
2022-10-06T00:19:33.982Z,100.00
2022-10-06T00:22:00.487Z,100.00
2022-10-06T00:24:27.356Z,100.00
2022-10-06T00:26:53.921Z,100.00
2022-10-06T00:29:20.520Z,100.00
2022-10-06T00:31:47.062Z,100.00
2022-10-06T00:34:13.735Z,100.00
2022-10-06T00:36:40.286Z,100.00
2022-10-06T00:39:07.026Z,100.00
2022-10-06T00:41:33.574Z,100.00
2022-10-06T00:44:00.307Z,100.00
2022-10-06T00:46:34.171Z,100.00
2022-10-06T00:49:08.589Z,100.00
2022-10-06T00:51:39.121Z,100.00
2022-10-06T00:54:05.763Z,100.00
2022-10-06T00:56:32.587Z,100.00
2022-10-06T00:58:59.595Z,100.00
2022-10-06T01:01:27.784Z,100.00
2022-10-06T01:04:00.411Z,100.00
2022-10-06T01:06:26.960Z,100.00
2022-10-06T01:08:53.740Z,100.00
2022-10-06T01:11:20.989Z,100.00
2022-10-06T01:13:47.683Z,100.00
2022-10-06T01:16:17.233Z,100.00
2022-10-06T01:18:47.183Z,100.00
2022-10-06T01:21:28.045Z,100.00
2022-10-06T01:23:57.130Z,100.00
2022-10-06T01:26:24.956Z,100.00
2022-10-06T01:28:51.670Z,100.00
2022-10-06T01:31:18.537Z,100.00
2022-10-06T01:33:45.256Z,100.00
2022-10-06T01:36:11.764Z,100.00
2022-10-06T01:38:38.248Z,100.00
2022-10-06T01:41:04.850Z,100.00
2022-10-06T01:43:31.519Z,100.00
2022-10-06T01:45:59.114Z,100.00
2022-10-06T01:48:26.991Z,100.00
2022-10-06T01:50:54.453Z,100.00
2022-10-06T01:53:22.238Z,100.00
2022-10-06T01:55:48.806Z,100.00
2022-10-06T01:58:16.011Z,100.00
2022-10-06T02:00:42.986Z,100.00
2022-10-06T02:03:09.547Z,100.00
2022-10-06T02:05:36.172Z,100.00
2022-10-06T02:08:04.707Z,100.00
2022-10-06T02:10:31.272Z,100.00
2022-10-06T02:12:57.975Z,100.00
2022-10-06T02:15:26.831Z,100.00
2022-10-06T02:17:54.435Z,100.00
2022-10-06T02:20:21.318Z,100.00
2022-10-06T02:22:47.867Z,100.00
2022-10-06T02:25:14.521Z,100.00
2022-10-06T02:27:41.011Z,100.00
2022-10-06T02:30:08.759Z,100.00
2022-10-06T02:32:37.397Z,100.00
2022-10-06T02:35:04.714Z,100.00
2022-10-06T02:37:31.416Z,100.00
2022-10-06T02:39:57.990Z,100.00
2022-10-06T02:42:24.610Z,100.00
2022-10-06T02:44:52.277Z,100.00
2022-10-06T02:47:22.237Z,100.00
2022-10-06T02:49:48.876Z,100.00
2022-10-06T02:52:15.571Z,100.00
2022-10-06T02:54:42.455Z,100.00
2022-10-06T02:57:09.664Z,100.00
2022-10-06T02:59:36.628Z,100.00
2022-10-06T03:02:03.586Z,100.00
2022-10-06T03:04:30.681Z,100.00
2022-10-06T03:06:57.853Z,100.00
2022-10-06T03:09:25.130Z,100.00
2022-10-06T03:11:51.687Z,100.00
2022-10-06T03:14:21.819Z,100.00
2022-10-06T03:16:50.247Z,100.00
2022-10-06T03:19:16.842Z,100.00
2022-10-06T03:21:44.422Z,97.84
2022-10-06T03:24:11.357Z,96.54
2022-10-06T03:26:43.329Z,94.41
2022-10-06T03:29:11.889Z,89.94
2022-10-06T03:31:40.091Z,90.16
2022-10-06T03:34:07.150Z,90.54
2022-10-06T03:36:34.769Z,90.56
2022-10-06T03:39:02.860Z,90.23
2022-10-06T03:41:31.218Z,88.54
2022-10-06T03:43:59.567Z,88.88
2022-10-06T03:46:28.441Z,89.64
2022-10-06T03:48:57.165Z,90.35
2022-10-06T03:51:36.020Z,90.89
2022-10-06T03:54:03.385Z,90.99
2022-10-06T03:56:30.899Z,91.42
2022-10-06T03:59:03.050Z,91.86
2022-10-06T04:01:38.029Z,92.13
2022-10-06T04:04:05.890Z,92.10
2022-10-06T04:06:36.435Z,92.74
2022-10-06T04:09:03.864Z,92.99
2022-10-06T04:11:33.057Z,93.45
2022-10-06T04:14:01.848Z,92.41
2022-10-06T04:16:33.263Z,91.64
2022-10-06T04:19:03.154Z,91.56
2022-10-06T04:21:31.807Z,91.67
2022-10-06T04:23:59.980Z,91.11
2022-10-06T04:26:30.612Z,91.42
2022-10-06T04:28:57.681Z,89.56
2022-10-06T04:31:26.712Z,88.71
2022-10-06T04:33:58.440Z,88.64
2022-10-06T04:36:30.970Z,88.96
2022-10-06T04:38:59.839Z,88.81
2022-10-06T04:41:28.910Z,89.61
2022-10-06T04:43:55.838Z,89.24
2022-10-06T04:46:42.305Z,88.84
2022-10-06T04:49:14.697Z,88.48
2022-10-06T04:51:45.397Z,88.60
2022-10-06T04:54:12.075Z,88.04
2022-10-06T04:56:38.834Z,88.19
2022-10-06T04:59:05.386Z,88.34
2022-10-06T05:01:34.166Z,88.16
2022-10-06T05:04:02.105Z,88.82
2022-10-06T05:06:31.269Z,88.96
2022-10-06T05:09:00.521Z,89.71
2022-10-06T05:11:27.527Z,90.83
2022-10-06T05:13:55.623Z,91.35
2022-10-06T05:16:23.727Z,91.34
2022-10-06T05:18:50.410Z,91.91
2022-10-06T05:21:19.455Z,92.71
2022-10-06T05:23:46.644Z,93.04
2022-10-06T05:26:21.063Z,93.01
2022-10-06T05:28:47.954Z,92.49
2022-10-06T05:31:16.173Z,90.30
2022-10-06T05:33:43.251Z,86.35
2022-10-06T05:36:15.141Z,86.52
2022-10-06T05:38:42.014Z,86.42
2022-10-06T05:41:12.553Z,85.98
2022-10-06T05:43:39.593Z,85.49
2022-10-06T05:46:10.640Z,82.27
2022-10-06T05:48:37.169Z,82.61
2022-10-06T05:51:09.420Z,82.14
2022-10-06T05:53:37.085Z,81.96
2022-10-06T05:56:08.018Z,82.01
2022-10-06T05:58:36.321Z,81.68
2022-10-06T06:01:11.461Z,80.88
2022-10-06T06:03:38.925Z,81.03
2022-10-06T06:06:24.685Z,81.25
2022-10-06T06:08:59.899Z,82.14
2022-10-06T06:11:28.020Z,82.88
2022-10-06T06:14:02.639Z,83.33
2022-10-06T06:16:32.995Z,83.08
2022-10-06T06:19:00.985Z,82.45
2022-10-06T06:21:28.560Z,82.11
2022-10-06T06:23:55.593Z,82.35
2022-10-06T06:26:27.284Z,82.97
2022-10-06T06:28:56.486Z,83.41
2022-10-06T06:31:27.155Z,83.98
2022-10-06T06:33:56.566Z,84.55
2022-10-06T06:36:28.414Z,84.18
2022-10-06T06:38:57.357Z,83.20
2022-10-06T06:41:24.885Z,83.55
2022-10-06T06:43:55.384Z,82.73
2022-10-06T06:46:25.197Z,82.88
2022-10-06T06:48:56.058Z,82.75
2022-10-06T06:51:24.203Z,82.41
2022-10-06T06:53:52.288Z,82.13
2022-10-06T06:56:21.287Z,78.77
2022-10-06T06:58:48.209Z,77.69
2022-10-06T07:01:17.240Z,75.75
2022-10-06T07:04:02.350Z,75.57
2022-10-06T07:06:30.416Z,74.66
2022-10-06T07:08:58.993Z,71.76
2022-10-06T07:11:33.957Z,72.10
2022-10-06T07:14:03.245Z,71.82
2022-10-06T07:16:49.791Z,70.70
2022-10-06T07:19:37.468Z,68.93
2022-10-06T07:22:25.912Z,68.01
2022-10-06T07:25:11.628Z,66.25
2022-10-06T07:27:46.897Z,67.61
2022-10-06T07:30:19.678Z,67.65
2022-10-06T07:32:50.640Z,66.56
2022-10-06T07:35:20.401Z,66.43
2022-10-06T07:37:47.460Z,66.32
2022-10-06T07:40:17.859Z,64.85
2022-10-06T07:42:52.041Z,63.52
2022-10-06T07:45:41.018Z,63.09
2022-10-06T07:48:14.521Z,62.93
2022-10-06T07:50:42.675Z,62.65
2022-10-06T07:53:09.313Z,63.20
2022-10-06T07:55:40.359Z,62.70
2022-10-06T07:58:14.975Z,63.05
2022-10-06T08:00:42.833Z,62.67
2022-10-06T08:03:10.907Z,62.92
2022-10-06T08:05:39.284Z,62.78
2022-10-06T08:08:06.569Z,63.52
2022-10-06T08:10:33.069Z,63.07
2022-10-06T08:13:01.242Z,63.35
2022-10-06T08:15:27.982Z,63.04
2022-10-06T08:17:54.495Z,63.75
2022-10-06T08:20:21.566Z,63.87
2022-10-06T08:22:48.289Z,63.91
2022-10-06T08:25:15.303Z,62.50
2022-10-06T08:27:44.150Z,63.21
2022-10-06T08:30:12.005Z,64.00
2022-10-06T08:32:39.185Z,63.07
2022-10-06T08:35:05.792Z,62.61
2022-10-06T08:37:32.419Z,63.19
2022-10-06T08:39:58.938Z,63.90
2022-10-06T08:42:43.406Z,63.62
2022-10-06T08:45:17.183Z,61.78
2022-10-06T08:48:09.967Z,59.93
2022-10-06T08:51:00.342Z,61.21
2022-10-06T08:53:48.510Z,60.02
2022-10-06T08:56:31.345Z,59.48
2022-10-06T08:59:04.286Z,60.16
2022-10-06T09:01:41.624Z,60.41
2022-10-06T09:04:15.936Z,59.91
2022-10-06T09:06:52.068Z,57.73
2022-10-06T09:09:34.983Z,59.70
2022-10-06T09:12:30.717Z,59.54
2022-10-06T09:15:17.513Z,58.10
2022-10-06T09:17:57.060Z,57.33
2022-10-06T09:20:34.147Z,57.29
2022-10-06T09:23:04.290Z,55.24
2022-10-06T09:25:30.936Z,55.87
2022-10-06T09:28:00.844Z,53.46
2022-10-06T09:30:27.741Z,53.60
2022-10-06T09:33:03.460Z,54.03
2022-10-06T09:35:31.948Z,53.96
2022-10-06T09:38:08.184Z,54.33
2022-10-06T09:40:46.137Z,55.83
2022-10-06T09:43:27.786Z,51.60
2022-10-06T09:45:55.959Z,51.81
2022-10-06T09:48:25.545Z,51.80
2022-10-06T09:51:17.312Z,50.43
2022-10-06T09:54:02.894Z,51.03
2022-10-06T09:56:29.863Z,51.79
2022-10-06T09:58:58.911Z,51.19
2022-10-06T10:01:28.654Z,52.43
2022-10-06T10:04:20.585Z,48.74
2022-10-06T10:06:47.104Z,49.98
2022-10-06T10:09:23.750Z,50.59
2022-10-06T10:12:24.489Z,50.99
2022-10-06T10:14:51.893Z,49.35
2022-10-06T10:17:35.467Z,49.69
2022-10-06T10:20:03.215Z,49.49
2022-10-06T10:22:34.885Z,49.35
2022-10-06T10:25:07.269Z,50.21
2022-10-06T10:27:45.750Z,50.10
2022-10-06T10:30:14.868Z,50.23
2022-10-06T10:33:12.090Z,49.27
2022-10-06T10:35:51.513Z,48.78
2022-10-06T10:38:26.922Z,48.67
2022-10-06T10:41:07.303Z,47.87
2022-10-06T10:43:34.726Z,47.91
2022-10-06T10:46:12.302Z,48.20
2022-10-06T10:49:14.123Z,47.81
2022-10-06T10:52:15.494Z,48.25
2022-10-06T10:54:48.237Z,48.88
2022-10-06T10:57:28.465Z,47.87
2022-10-06T11:00:01.464Z,47.11
2022-10-06T11:02:28.751Z,46.99
2022-10-06T11:05:03.935Z,47.10
2022-10-06T11:07:58.326Z,47.43
2022-10-06T11:10:41.071Z,46.21
2022-10-06T11:13:14.966Z,46.29
2022-10-06T11:15:48.421Z,46.26
2022-10-06T11:18:30.238Z,45.48
2022-10-06T11:21:11.582Z,46.81
2022-10-06T11:23:44.970Z,46.71
2022-10-06T11:26:35.959Z,46.21
2022-10-06T11:29:26.941Z,46.29
2022-10-06T11:32:12.245Z,45.35
2022-10-06T11:34:40.794Z,44.71
2022-10-06T11:37:28.822Z,43.88
2022-10-06T11:40:36.875Z,43.98
2022-10-06T11:43:09.498Z,42.55
2022-10-06T11:45:55.005Z,44.19
2022-10-06T11:48:32.218Z,45.58
2022-10-06T11:51:17.535Z,45.19
2022-10-06T11:53:45.548Z,44.07
2022-10-06T11:56:18.186Z,46.09
2022-10-06T11:58:56.654Z,47.01
2022-10-06T12:01:36.404Z,47.64
2022-10-06T12:04:05.426Z,46.88
2022-10-06T12:06:53.216Z,46.06
2022-10-06T12:09:26.371Z,47.56
2022-10-06T12:11:53.910Z,48.06
2022-10-06T12:17:37.704Z,47.67
2022-10-06T12:20:19.208Z,46.74
2022-10-06T12:23:01.847Z,45.94
2022-10-06T12:25:54.066Z,46.67
2022-10-06T12:28:44.450Z,47.47
2022-10-06T12:31:39.749Z,46.87
2022-10-06T12:34:43.853Z,47.09
2022-10-06T12:37:28.616Z,46.62
2022-10-06T12:40:32.732Z,46.61
2022-10-06T12:43:23.360Z,47.09
2022-10-06T12:45:56.057Z,46.37
2022-10-06T12:48:51.888Z,45.61
2022-10-06T12:51:36.292Z,45.91
2022-10-06T12:54:12.057Z,44.96
2022-10-06T12:56:40.891Z,46.82
2022-10-06T12:59:32.107Z,45.24
2022-10-06T13:02:02.820Z,44.61
2022-10-06T13:04:49.112Z,44.19
2022-10-06T13:07:22.379Z,44.17
2022-10-06T13:09:52.351Z,44.11
2022-10-06T13:12:24.108Z,44.11
2022-10-06T13:15:12.685Z,43.79
2022-10-06T13:17:42.930Z,44.13
2022-10-06T13:20:20.709Z,43.84
2022-10-06T13:22:56.018Z,44.18
2022-10-06T13:25:22.519Z,42.51
2022-10-06T13:27:51.835Z,42.42
2022-10-06T13:30:22.475Z,43.42
2022-10-06T13:32:53.649Z,43.63
2022-10-06T13:35:24.669Z,42.81
2022-10-06T13:37:55.415Z,43.23
2022-10-06T13:40:43.992Z,43.61
2022-10-06T13:43:19.210Z,44.48
2022-10-06T13:45:48.368Z,44.18
2022-10-06T13:48:21.170Z,44.02
2022-10-06T13:50:49.359Z,44.30
2022-10-06T13:53:31.422Z,44.05
2022-10-06T13:55:59.018Z,43.76
2022-10-06T13:58:27.943Z,42.58
2022-10-06T14:01:00.826Z,44.03
2022-10-06T14:03:29.439Z,44.21
2022-10-06T14:06:16.970Z,44.00
2022-10-06T14:08:54.831Z,42.26
2022-10-06T14:11:24.806Z,42.49
2022-10-06T14:14:03.024Z,42.98
2022-10-06T14:16:29.791Z,42.50
2022-10-06T14:19:00.078Z,42.22
2022-10-06T14:21:30.114Z,42.13
2022-10-06T14:23:56.761Z,41.67
2022-10-06T14:26:27.057Z,42.38
2022-10-06T14:28:53.978Z,42.32
2022-10-06T14:31:21.907Z,43.18
2022-10-06T14:33:53.442Z,43.25
2022-10-06T14:36:27.344Z,42.28
2022-10-06T14:38:55.649Z,41.66
2022-10-06T14:41:30.356Z,40.63
2022-10-06T14:44:01.410Z,39.29
2022-10-06T14:46:29.172Z,38.68
2022-10-06T14:48:56.019Z,40.59
2022-10-06T14:51:24.576Z,42.04
2022-10-06T14:53:54.835Z,42.43
2022-10-06T14:56:23.347Z,43.30
2022-10-06T14:58:51.316Z,43.58
2022-10-06T15:01:21.209Z,43.56
2022-10-06T15:03:59.690Z,43.25
2022-10-06T15:06:46.498Z,43.41
2022-10-06T15:09:13.284Z,44.20
2022-10-06T15:11:40.483Z,43.53
2022-10-06T15:14:10.435Z,43.75
2022-10-06T15:16:40.603Z,43.62
2022-10-06T15:19:07.219Z,43.25
2022-10-06T15:21:34.248Z,43.88
2022-10-06T15:24:04.384Z,44.27
2022-10-06T15:26:50.500Z,44.25
2022-10-06T15:29:17.881Z,44.41
2022-10-06T15:31:53.079Z,44.89
2022-10-06T15:34:23.713Z,43.97
2022-10-06T15:36:52.420Z,44.58
2022-10-06T15:39:21.645Z,44.94
2022-10-06T15:41:48.718Z,44.65
2022-10-06T15:44:16.503Z,45.11
2022-10-06T15:46:45.427Z,44.93
2022-10-06T15:49:19.996Z,45.42
2022-10-06T15:51:52.232Z,45.38
2022-10-06T15:54:24.168Z,46.24
2022-10-06T15:56:59.406Z,45.84
2022-10-06T15:59:27.517Z,46.16
2022-10-06T16:01:57.182Z,46.78
2022-10-06T16:04:48.199Z,46.76
2022-10-06T16:07:19.687Z,46.85
2022-10-06T16:09:48.761Z,47.18
2022-10-06T16:12:18.293Z,47.07
2022-10-06T16:14:45.204Z,47.45
2022-10-06T16:17:12.430Z,47.46
2022-10-06T16:19:40.289Z,47.50
2022-10-06T16:22:10.986Z,47.47
2022-10-06T16:24:37.568Z,47.08
2022-10-06T16:27:04.513Z,46.38
2022-10-06T16:29:31.197Z,46.68
2022-10-06T16:31:59.103Z,47.22
2022-10-06T16:34:25.630Z,47.65
2022-10-06T16:36:52.348Z,48.05
2022-10-06T16:39:21.534Z,48.24
2022-10-06T16:41:49.366Z,48.53
2022-10-06T16:44:16.327Z,48.46
2022-10-06T16:46:43.260Z,48.64
2022-10-06T16:49:10.184Z,48.97
2022-10-06T16:51:48.380Z,49.46
2022-10-06T16:54:17.392Z,49.99
2022-10-06T16:56:52.501Z,50.45
2022-10-06T16:59:20.931Z,50.34
2022-10-06T17:01:49.024Z,51.24
2022-10-06T17:04:25.495Z,51.78
2022-10-06T17:06:54.910Z,52.04
2022-10-06T17:09:23.571Z,52.12
2022-10-06T17:11:52.691Z,52.13
2022-10-06T17:14:20.026Z,52.43
2022-10-06T17:16:48.562Z,53.17
2022-10-06T17:19:16.930Z,53.51
2022-10-06T17:21:46.766Z,54.55
2022-10-06T17:24:14.924Z,55.71
2022-10-06T17:26:43.752Z,56.22
2022-10-06T17:29:16.945Z,59.27
2022-10-06T17:31:43.721Z,58.17
2022-10-06T17:34:21.244Z,58.73
2022-10-06T17:36:50.935Z,59.53
2022-10-06T17:39:20.335Z,60.68
2022-10-06T17:41:48.084Z,60.06
2022-10-06T17:44:18.841Z,60.22
2022-10-06T17:46:45.667Z,61.13
2022-10-06T17:49:15.659Z,62.75
2022-10-06T17:51:45.374Z,63.92
2022-10-06T17:54:16.403Z,64.67
2022-10-06T17:56:44.048Z,65.69
2022-10-06T17:59:20.022Z,66.66
2022-10-06T18:01:46.765Z,68.21
2022-10-06T18:04:17.591Z,68.76
2022-10-06T18:06:46.385Z,69.55
2022-10-06T18:09:14.587Z,69.94
2022-10-06T18:11:43.907Z,70.44
2022-10-06T18:14:19.640Z,70.89
2022-10-06T18:16:55.911Z,71.45
2022-10-06T18:19:33.562Z,72.33
2022-10-06T18:22:03.338Z,71.49
2022-10-06T18:24:31.455Z,71.92
2022-10-06T18:27:00.315Z,72.41
2022-10-06T18:29:32.898Z,72.90
2022-10-06T18:32:27.241Z,72.42
2022-10-06T18:37:34.378Z,74.36
2022-10-06T18:40:05.249Z,75.41
2022-10-06T18:42:31.796Z,76.01
2022-10-06T18:45:16.974Z,76.01
2022-10-06T18:48:01.939Z,76.42
2022-10-06T18:50:28.476Z,76.71
2022-10-06T18:52:56.939Z,77.36
2022-10-06T18:55:23.507Z,77.52
2022-10-06T18:57:50.521Z,77.60
2022-10-06T19:00:17.690Z,78.63
2022-10-06T19:02:48.291Z,79.38
2022-10-06T19:05:17.290Z,80.03
2022-10-06T19:07:44.768Z,80.58
2022-10-06T19:10:11.885Z,80.02
2022-10-06T19:12:38.522Z,79.54
2022-10-06T19:15:05.723Z,79.67
2022-10-06T19:17:32.636Z,79.27
2022-10-06T19:19:59.370Z,79.04
2022-10-06T19:22:25.982Z,79.65
2022-10-06T19:24:52.984Z,80.53
2022-10-06T19:27:24.378Z,81.98
2022-10-06T19:29:56.627Z,82.20
2022-10-06T19:32:26.703Z,82.59
2022-10-06T19:34:57.980Z,83.23
2022-10-06T19:37:27.140Z,83.84
2022-10-06T19:39:53.945Z,84.78
2022-10-06T19:42:39.891Z,84.88
2022-10-06T19:45:07.986Z,84.35
2022-10-06T19:47:34.556Z,84.63
2022-10-06T19:50:05.959Z,85.46
2022-10-06T19:52:37.039Z,86.30
2022-10-06T19:55:04.224Z,86.77
2022-10-06T19:57:32.603Z,87.13
2022-10-06T19:59:59.235Z,86.37
2022-10-06T20:02:25.942Z,86.25
2022-10-06T20:04:52.472Z,86.10
2022-10-06T20:07:21.803Z,86.79
2022-10-06T20:09:48.678Z,87.23
2022-10-06T20:12:17.837Z,87.93
2022-10-06T20:14:47.781Z,87.67
2022-10-06T20:17:14.412Z,87.48
2022-10-06T20:19:41.057Z,88.33
2022-10-06T20:22:07.638Z,88.24
2022-10-06T20:24:35.289Z,87.99
2022-10-06T20:27:01.900Z,87.77
2022-10-06T20:29:28.773Z,87.72
2022-10-06T20:31:59.522Z,87.96
2022-10-06T20:34:32.293Z,88.84
2022-10-06T20:37:01.909Z,88.75
2022-10-06T20:39:49.369Z,89.41
2022-10-06T20:42:16.675Z,89.31
2022-10-06T20:44:44.345Z,89.09
2022-10-06T20:47:13.209Z,89.23
2022-10-06T20:49:42.243Z,89.79
2022-10-06T20:52:09.927Z,90.12
2022-10-06T20:54:37.387Z,91.19
2022-10-06T20:57:06.269Z,92.12
2022-10-06T20:59:35.483Z,92.26
2022-10-06T21:02:02.908Z,92.87
2022-10-06T21:04:30.551Z,93.64
2022-10-06T21:06:57.802Z,93.61
2022-10-06T21:09:25.032Z,93.24
2022-10-06T21:11:52.581Z,93.63
2022-10-06T21:14:19.980Z,94.12
2022-10-06T21:16:48.052Z,95.12
2022-10-06T21:19:19.391Z,96.17
2022-10-06T21:21:52.395Z,96.88
2022-10-06T21:24:20.773Z,96.85
2022-10-06T21:26:48.137Z,97.26
2022-10-06T21:29:15.667Z,97.21
2022-10-06T21:31:43.558Z,97.56
2022-10-06T21:34:10.625Z,97.74
2022-10-06T21:36:37.385Z,98.82
2022-10-06T21:39:07.303Z,98.45
2022-10-06T21:41:39.093Z,98.88
2022-10-06T21:44:10.261Z,98.46
2022-10-06T21:46:40.929Z,98.48
2022-10-06T21:49:09.994Z,98.62
2022-10-06T21:51:37.245Z,99.08
2022-10-06T21:54:05.003Z,99.38
2022-10-06T21:56:33.437Z,100.00
2022-10-06T21:59:00.881Z,100.00
2022-10-06T22:01:39.545Z,100.00
2022-10-06T22:04:06.611Z,100.00
2022-10-06T22:06:36.218Z,100.00
2022-10-06T22:09:04.972Z,100.00
2022-10-06T22:11:35.262Z,100.00
2022-10-06T22:14:05.243Z,100.00
2022-10-06T22:16:34.574Z,100.00
2022-10-06T22:19:03.611Z,100.00
2022-10-06T22:21:34.677Z,100.00
2022-10-06T22:24:09.719Z,100.00
2022-10-06T22:26:38.552Z,100.00
2022-10-06T22:29:08.109Z,100.00
2022-10-06T22:31:36.905Z,100.00
2022-10-06T22:34:06.844Z,100.00
2022-10-06T22:36:34.780Z,100.00
2022-10-06T22:39:02.082Z,100.00
2022-10-06T22:41:29.431Z,100.00
2022-10-06T22:43:57.945Z,100.00
2022-10-06T22:46:29.382Z,100.00
2022-10-06T22:48:56.726Z,100.00
2022-10-06T22:51:23.770Z,100.00
2022-10-06T22:53:58.950Z,100.00
2022-10-06T22:56:31.741Z,100.00
2022-10-06T22:59:00.057Z,100.00
2022-10-06T23:01:28.344Z,100.00
2022-10-06T23:03:55.748Z,100.00
2022-10-06T23:06:22.586Z,100.00
2022-10-06T23:08:49.233Z,100.00
2022-10-06T23:11:18.423Z,100.00
2022-10-06T23:13:45.587Z,100.00
2022-10-06T23:16:14.776Z,100.00
2022-10-06T23:18:42.963Z,100.00
2022-10-06T23:21:19.413Z,100.00
2022-10-06T23:23:46.775Z,100.00
2022-10-06T23:26:15.300Z,100.00
2022-10-06T23:28:42.741Z,100.00
2022-10-06T23:31:10.603Z,100.00
2022-10-06T23:33:37.673Z,100.00
2022-10-06T23:36:09.870Z,100.00
2022-10-06T23:38:37.610Z,100.00
2022-10-06T23:41:05.018Z,100.00
2022-10-06T23:43:31.779Z,100.00
2022-10-06T23:45:58.492Z,100.00
2022-10-06T23:48:25.494Z,100.00
2022-10-06T23:51:00.537Z,100.00
2022-10-06T23:53:27.848Z,100.00
2022-10-06T23:55:54.967Z,100.00
2022-10-06T23:58:22.756Z,100.00
